createdAt,value
2018-12-17T00:00:33.297Z,22.57
2018-12-17T00:03:02.245Z,20.90
2018-12-17T00:05:31.148Z,24.07
2018-12-17T00:08:00.053Z,25.63
2018-12-17T00:10:28.931Z,23.10
2018-12-17T00:12:57.861Z,26.53
2018-12-17T00:15:26.724Z,24.90
2018-12-17T00:17:55.662Z,24.10
2018-12-17T00:20:24.546Z,23.67
2018-12-17T00:22:53.457Z,26.00
2018-12-17T00:25:22.359Z,24.73
2018-12-17T00:27:51.288Z,25.23
2018-12-17T00:30:20.191Z,26.13
2018-12-17T00:32:49.096Z,25.10
2018-12-17T00:35:18.008Z,23.93
2018-12-17T00:37:46.900Z,25.40
2018-12-17T00:40:15.853Z,25.30
2018-12-17T00:42:44.720Z,34.17
2018-12-17T00:45:13.619Z,27.00
2018-12-17T00:47:42.497Z,25.57
2018-12-17T00:50:11.416Z,23.73
2018-12-17T00:52:40.326Z,23.87
2018-12-17T00:55:09.252Z,23.73
2018-12-17T00:57:38.186Z,23.40
2018-12-17T01:00:09.375Z,32.35
2018-12-17T01:02:38.291Z,25.00
2018-12-17T01:05:07.343Z,23.90
2018-12-17T01:07:36.230Z,21.57
2018-12-17T01:10:07.491Z,23.50
2018-12-17T01:12:36.411Z,23.80
2018-12-17T01:15:06.712Z,21.87
2018-12-17T01:17:35.665Z,22.73
2018-12-17T01:20:05.737Z,21.33
2018-12-17T01:22:34.658Z,22.63
2018-12-17T01:25:03.576Z,20.97
2018-12-17T01:27:32.489Z,21.67
2018-12-17T01:30:01.408Z,22.83
2018-12-17T01:32:30.309Z,27.03
2018-12-17T01:34:59.178Z,23.20
2018-12-17T01:37:28.066Z,21.53
2018-12-17T01:39:56.947Z,22.10
2018-12-17T01:42:25.840Z,24.67
2018-12-17T01:44:54.764Z,23.00
2018-12-17T01:47:23.651Z,34.45
2018-12-17T01:49:52.548Z,23.47
2018-12-17T01:52:21.455Z,23.77
2018-12-17T01:54:50.372Z,29.60
2018-12-17T01:57:19.240Z,23.43
2018-12-17T01:59:48.137Z,22.73
2018-12-17T02:02:17.017Z,21.47
2018-12-17T02:04:45.910Z,20.90
2018-12-17T02:07:15.326Z,21.83
2018-12-17T02:09:43.727Z,21.27
2018-12-17T02:12:12.646Z,21.63
2018-12-17T02:14:41.574Z,23.13
2018-12-17T02:17:10.441Z,19.73
2018-12-17T02:19:39.330Z,20.57
2018-12-17T02:22:08.262Z,20.37
2018-12-17T02:24:37.158Z,19.33
2018-12-17T02:27:06.117Z,21.57
2018-12-17T02:29:35.031Z,21.27
2018-12-17T02:32:03.927Z,20.63
2018-12-17T02:34:32.806Z,28.47
2018-12-17T02:37:01.715Z,21.60
2018-12-17T02:39:30.621Z,20.50
2018-12-17T02:41:59.525Z,19.53
2018-12-17T02:44:28.426Z,19.57
2018-12-17T02:46:57.362Z,20.43
2018-12-17T02:49:26.226Z,30.32
2018-12-17T02:51:55.165Z,21.90
2018-12-17T02:54:24.037Z,31.20
2018-12-17T02:56:52.948Z,22.00
2018-12-17T02:59:21.867Z,21.03
2018-12-17T03:01:50.765Z,20.87
2018-12-17T03:04:19.690Z,22.63
2018-12-17T03:06:48.567Z,20.93
2018-12-17T03:09:17.485Z,21.97
2018-12-17T03:11:46.385Z,20.73
2018-12-17T03:14:15.276Z,22.17
2018-12-17T03:16:44.198Z,23.10
2018-12-17T03:19:13.108Z,22.97
2018-12-17T03:21:42.043Z,26.20
2018-12-17T03:24:10.908Z,23.03
2018-12-17T03:26:39.829Z,24.13
2018-12-17T03:29:08.716Z,25.47
2018-12-17T03:31:37.603Z,24.60
2018-12-17T03:34:06.556Z,23.13
2018-12-17T03:36:35.451Z,23.27
2018-12-17T03:39:05.246Z,36.80
2018-12-17T03:41:34.071Z,28.07
2018-12-17T03:44:03.014Z,26.73
2018-12-17T03:46:31.917Z,25.20
2018-12-17T03:49:00.816Z,24.53
2018-12-17T03:51:29.712Z,26.63
2018-12-17T03:53:58.642Z,25.40
2018-12-17T03:56:27.538Z,36.23
2018-12-17T03:58:59.409Z,28.00
2018-12-17T04:01:25.350Z,26.83
2018-12-17T04:03:54.252Z,28.30
2018-12-17T04:06:23.252Z,28.07
2018-12-17T04:08:52.109Z,29.27
2018-12-17T04:11:20.985Z,31.87
2018-12-17T04:13:49.879Z,32.23
2018-12-17T04:16:18.793Z,32.27
2018-12-17T04:18:47.649Z,33.10
2018-12-17T04:21:16.607Z,34.57
2018-12-17T04:23:45.439Z,34.40
2018-12-17T04:26:14.343Z,35.90
2018-12-17T04:28:43.221Z,34.33
2018-12-17T04:31:12.140Z,33.90
2018-12-17T04:33:41.017Z,35.63
2018-12-17T04:36:09.939Z,36.07
2018-12-17T04:38:38.803Z,35.93
2018-12-17T04:41:07.738Z,34.30
2018-12-17T04:43:36.646Z,32.90
2018-12-17T04:46:07.167Z,35.00
2018-12-17T04:48:34.412Z,33.10
2018-12-17T04:51:03.344Z,30.87
2018-12-17T04:53:32.245Z,32.87
2018-12-17T04:56:01.112Z,31.30
2018-12-17T04:58:30.045Z,31.17
2018-12-17T05:00:58.984Z,30.47
2018-12-17T05:03:27.887Z,29.37
2018-12-17T05:05:56.779Z,26.93
2018-12-17T05:08:25.682Z,27.70
2018-12-17T05:10:54.559Z,26.73
2018-12-17T05:13:23.459Z,26.17
2018-12-17T05:15:52.339Z,25.77
2018-12-17T05:18:21.262Z,26.13
2018-12-17T05:20:50.181Z,25.37
2018-12-17T05:23:19.165Z,24.40
2018-12-17T05:25:48.070Z,24.80
2018-12-17T05:28:16.961Z,22.13
2018-12-17T05:30:45.871Z,22.47
2018-12-17T05:33:14.786Z,22.30
2018-12-17T05:35:43.750Z,20.90
2018-12-17T05:38:12.619Z,21.27
2018-12-17T05:40:41.521Z,20.53
2018-12-17T05:43:10.530Z,20.30
2018-12-17T05:45:39.414Z,20.10
2018-12-17T05:48:08.344Z,20.57
2018-12-17T05:50:37.304Z,19.07
2018-12-17T05:53:06.385Z,19.97
2018-12-17T05:55:35.258Z,19.43
2018-12-17T05:58:04.166Z,18.70
2018-12-17T06:00:33.176Z,18.87
2018-12-17T06:03:02.130Z,17.90
2018-12-17T06:05:31.033Z,19.17
2018-12-17T06:07:59.936Z,18.00
2018-12-17T06:10:28.961Z,19.73
2018-12-17T06:12:57.807Z,18.23
2018-12-17T06:15:26.806Z,18.53
2018-12-17T06:17:55.722Z,18.50
2018-12-17T06:20:24.887Z,18.67
2018-12-17T06:22:53.806Z,17.63
2018-12-17T06:25:22.765Z,18.57
2018-12-17T06:27:51.629Z,17.20
2018-12-17T06:30:20.562Z,18.67
2018-12-17T06:32:49.629Z,17.27
2018-12-17T06:35:18.567Z,18.03
2018-12-17T06:37:47.486Z,18.00
2018-12-17T06:40:16.409Z,17.33
2018-12-17T06:42:45.356Z,18.00
2018-12-17T06:45:14.276Z,16.80
2018-12-17T06:47:43.211Z,17.70
2018-12-17T06:50:12.121Z,16.70
2018-12-17T06:52:41.033Z,18.93
2018-12-17T06:55:09.959Z,17.00
2018-12-17T06:57:38.859Z,18.73
2018-12-17T07:00:08.304Z,17.03
2018-12-17T07:02:37.210Z,22.80
2018-12-17T07:05:06.375Z,18.57
2018-12-17T07:07:35.362Z,17.30
2018-12-17T07:10:04.514Z,15.43
2018-12-17T07:12:33.364Z,23.57
2018-12-17T07:15:02.274Z,17.40
2018-12-17T07:17:31.205Z,17.37
2018-12-17T07:20:00.121Z,17.37
2018-12-17T07:22:29.044Z,17.07
2018-12-17T07:24:57.989Z,17.03
2018-12-17T07:27:26.898Z,17.40
2018-12-17T07:29:55.809Z,24.25
2018-12-17T07:32:24.689Z,24.25
2018-12-17T07:34:53.606Z,18.83
2018-12-17T07:37:22.570Z,16.80
2018-12-17T07:39:51.442Z,18.30
2018-12-17T07:42:20.355Z,18.77
2018-12-17T07:44:49.317Z,17.73
2018-12-17T07:47:18.198Z,17.00
2018-12-17T07:49:47.106Z,18.23
2018-12-17T07:52:16.057Z,18.40
2018-12-17T07:54:44.946Z,26.07
2018-12-17T07:57:13.892Z,21.03
2018-12-17T07:59:42.919Z,20.50
2018-12-17T08:02:11.825Z,19.80
2018-12-17T08:04:40.743Z,19.93
2018-12-17T08:07:09.704Z,19.97
2018-12-17T08:09:38.594Z,19.67
2018-12-17T08:12:07.690Z,20.67
2018-12-17T08:14:36.628Z,20.27
2018-12-17T08:17:05.619Z,19.90
2018-12-17T08:19:34.588Z,19.20
2018-12-17T08:22:03.477Z,20.67
2018-12-17T08:24:32.357Z,21.33
2018-12-17T08:27:01.291Z,21.37
2018-12-17T08:29:31.810Z,20.93
2018-12-17T08:32:00.668Z,21.20
2018-12-17T08:34:29.587Z,28.77
2018-12-17T08:36:58.515Z,22.60
2018-12-17T08:39:27.393Z,22.60
2018-12-17T08:41:56.333Z,22.37
2018-12-17T08:44:25.269Z,22.63
2018-12-17T08:46:54.180Z,22.23
2018-12-17T08:49:23.097Z,22.07
2018-12-17T08:51:53.447Z,24.37
2018-12-17T08:54:22.400Z,24.50
2018-12-17T08:56:51.304Z,22.50
2018-12-17T08:59:20.249Z,23.43
2018-12-17T09:01:49.383Z,23.47
2018-12-17T09:04:18.209Z,32.27
2018-12-17T09:06:47.138Z,25.47
2018-12-17T09:09:16.151Z,25.63
2018-12-17T09:11:45.041Z,27.87
2018-12-17T09:14:13.933Z,26.90
2018-12-17T09:16:42.836Z,25.53
2018-12-17T09:19:11.739Z,27.33
2018-12-17T09:21:40.652Z,26.77
2018-12-17T09:24:09.584Z,27.80
2018-12-17T09:26:38.500Z,26.73
2018-12-17T09:29:07.595Z,24.70
2018-12-17T09:31:36.516Z,24.87
2018-12-17T09:34:05.603Z,25.37
2018-12-17T09:36:38.781Z,25.07
2018-12-17T09:39:08.661Z,25.27
2018-12-17T09:41:37.564Z,24.03
2018-12-17T09:44:06.794Z,24.87
2018-12-17T09:46:35.687Z,25.50
2018-12-17T09:49:04.643Z,26.37
2018-12-17T09:51:33.624Z,25.47
2018-12-17T09:54:02.482Z,28.63
2018-12-17T09:56:31.454Z,27.23
2018-12-17T09:59:00.378Z,28.67
2018-12-17T10:01:29.290Z,27.67
2018-12-17T10:04:00.158Z,28.10
2018-12-17T10:06:29.062Z,30.37
2018-12-17T10:08:57.986Z,27.17
2018-12-17T10:11:26.886Z,29.07
2018-12-17T10:13:55.875Z,29.40
2018-12-17T10:16:28.380Z,30.43
2018-12-17T10:18:55.980Z,28.93
2018-12-17T10:21:24.904Z,38.58
2018-12-17T10:23:53.838Z,31.03
2018-12-17T10:26:22.748Z,29.87
2018-12-17T10:28:51.648Z,30.57
2018-12-17T10:31:20.575Z,29.73
2018-12-17T10:33:49.510Z,29.93
2018-12-17T10:36:18.429Z,30.23
2018-12-17T10:38:47.333Z,29.23
2018-12-17T10:41:16.230Z,29.17
2018-12-17T10:43:45.113Z,29.47
2018-12-17T10:46:14.008Z,29.93
2018-12-17T10:48:42.929Z,29.60
2018-12-17T10:51:11.811Z,29.17
2018-12-17T10:53:40.755Z,36.80
2018-12-17T10:56:09.960Z,35.73
2018-12-17T10:58:38.651Z,30.03
2018-12-17T11:01:25.597Z,33.95
2018-12-17T11:04:01.672Z,27.53
2018-12-17T11:06:30.547Z,25.73
2018-12-17T11:08:59.500Z,33.60
2018-12-17T11:11:28.411Z,31.37
2018-12-17T11:13:57.301Z,24.83
2018-12-17T11:16:26.248Z,23.30
2018-12-17T11:18:55.237Z,23.47
2018-12-17T11:21:24.125Z,22.60
2018-12-17T11:23:53.027Z,22.37
2018-12-17T11:26:21.974Z,23.57
2018-12-17T11:28:51.030Z,23.47
2018-12-17T11:31:19.886Z,22.33
2018-12-17T11:33:48.950Z,22.23
2018-12-17T11:36:17.880Z,22.43
2018-12-17T11:38:46.788Z,20.37
2018-12-17T11:41:15.684Z,18.97
2018-12-17T11:43:44.607Z,18.83
2018-12-17T11:46:13.511Z,19.27
2018-12-17T11:48:42.593Z,18.80
2018-12-17T11:51:11.563Z,17.80
2018-12-17T11:53:40.391Z,17.17
2018-12-17T11:56:09.506Z,15.97
2018-12-17T11:58:38.425Z,15.37
2018-12-17T12:01:07.464Z,14.37
2018-12-17T12:03:40.883Z,14.10
2018-12-17T12:06:13.891Z,14.43
2018-12-17T12:08:38.799Z,14.13
2018-12-17T12:11:07.994Z,14.57
2018-12-17T12:13:36.894Z,12.90
2018-12-17T12:16:05.828Z,11.93
2018-12-17T12:18:34.720Z,11.97
2018-12-17T12:21:03.651Z,11.73
2018-12-17T12:23:32.508Z,12.40
2018-12-17T12:26:01.395Z,12.27
2018-12-17T12:28:30.322Z,13.30
2018-12-17T12:31:00.545Z,13.20
2018-12-17T12:33:28.077Z,11.83
2018-12-17T12:35:56.986Z,11.93
2018-12-17T12:38:25.898Z,13.23
2018-12-17T12:40:54.809Z,16.25
2018-12-17T12:43:23.779Z,12.93
2018-12-17T12:45:52.626Z,12.20
2018-12-17T12:48:21.535Z,13.13
2018-12-17T12:50:50.494Z,11.27
2018-12-17T12:53:19.330Z,15.75
2018-12-17T12:55:48.245Z,13.43
2018-12-17T12:58:17.135Z,15.75
2018-12-17T13:00:46.046Z,12.07
2018-12-17T13:03:14.983Z,11.50
2018-12-17T13:05:43.908Z,10.23
2018-12-17T13:08:12.804Z,10.77
2018-12-17T13:10:41.741Z,10.30
2018-12-17T13:13:10.700Z,10.50
2018-12-17T13:15:39.573Z,9.57
2018-12-17T13:18:08.574Z,9.30
2018-12-17T13:20:37.448Z,9.73
2018-12-17T13:23:06.454Z,8.50
2018-12-17T13:25:44.622Z,9.87
2018-12-17T13:28:13.516Z,8.33
2018-12-17T13:30:42.439Z,8.03
2018-12-17T13:33:11.318Z,7.83
2018-12-17T13:35:40.219Z,8.70
2018-12-17T13:38:09.297Z,7.83
2018-12-17T13:40:38.217Z,7.17
2018-12-17T13:43:07.218Z,7.97
2018-12-17T13:45:36.148Z,8.10
2018-12-17T13:48:05.085Z,7.13
2018-12-17T13:50:34.096Z,7.70
2018-12-17T13:53:20.606Z,8.10
2018-12-17T13:55:49.495Z,7.70
2018-12-17T13:58:18.408Z,7.27
2018-12-17T14:00:47.456Z,6.73
2018-12-17T14:03:16.334Z,6.83
2018-12-17T14:05:45.242Z,7.00
2018-12-17T14:08:14.222Z,6.33
2018-12-17T14:10:50.289Z,7.03
2018-12-17T14:13:19.173Z,5.50
2018-12-17T14:16:12.988Z,5.97
2018-12-17T14:18:59.664Z,5.83
2018-12-17T14:21:46.336Z,6.07
2018-12-17T14:24:15.237Z,4.83
2018-12-17T14:26:44.123Z,5.27
2018-12-17T14:29:13.015Z,5.00
2018-12-17T14:31:41.943Z,5.30
2018-12-17T14:34:10.860Z,5.30
2018-12-17T14:36:39.838Z,4.70
2018-12-17T14:39:09.375Z,5.03
2018-12-17T14:41:38.293Z,4.77
2018-12-17T14:44:38.651Z,4.37
2018-12-17T14:47:07.686Z,4.93
2018-12-17T14:49:36.547Z,4.50
2018-12-17T14:52:05.487Z,4.40
2018-12-17T14:54:34.413Z,4.90
2018-12-17T14:57:03.292Z,4.97
2018-12-17T14:59:32.213Z,4.67
2018-12-17T15:02:01.130Z,4.60
2018-12-17T15:04:30.046Z,4.93
2018-12-17T15:06:58.952Z,4.13
2018-12-17T15:09:27.863Z,4.23
2018-12-17T15:11:56.897Z,3.83
2018-12-17T15:14:25.713Z,4.20
2018-12-17T15:16:54.613Z,3.97
2018-12-17T15:19:23.547Z,7.23
2018-12-17T15:21:52.462Z,4.67
2018-12-17T15:24:21.338Z,3.83
2018-12-17T15:26:50.303Z,4.37
2018-12-17T15:29:19.235Z,3.83
2018-12-17T15:31:48.105Z,4.55
2018-12-17T15:34:17.028Z,4.10
2018-12-17T15:36:45.931Z,3.50
2018-12-17T15:39:14.861Z,3.47
2018-12-17T15:41:43.814Z,3.93
2018-12-17T15:44:12.721Z,3.63
2018-12-17T15:46:41.649Z,3.80
2018-12-17T15:49:10.554Z,4.05
2018-12-17T15:51:39.473Z,3.77
2018-12-17T15:54:08.449Z,3.90
2018-12-17T15:56:37.355Z,3.70
2018-12-17T15:59:06.310Z,3.30
2018-12-17T16:01:35.195Z,4.00
2018-12-17T16:04:04.151Z,3.67
2018-12-17T16:06:33.049Z,3.27
2018-12-17T16:09:01.926Z,3.50
2018-12-17T16:11:30.856Z,3.67
2018-12-17T16:13:59.883Z,4.00
2018-12-17T16:16:28.764Z,3.90
2018-12-17T16:18:57.644Z,3.80
2018-12-17T16:21:26.544Z,3.60
2018-12-17T16:23:55.446Z,4.03
2018-12-17T16:26:24.370Z,3.63
2018-12-17T16:28:53.268Z,3.77
2018-12-17T16:31:22.148Z,4.17
2018-12-17T16:33:51.051Z,3.77
2018-12-17T16:36:19.916Z,4.37
2018-12-17T16:38:48.846Z,3.53
2018-12-17T16:41:17.760Z,3.60
2018-12-17T16:43:46.664Z,3.90
2018-12-17T16:46:15.536Z,4.03
2018-12-17T16:48:44.459Z,4.10
2018-12-17T16:51:13.337Z,3.93
2018-12-17T16:53:42.212Z,4.63
2018-12-17T16:56:11.111Z,3.93
2018-12-17T16:58:39.985Z,3.90
2018-12-17T17:01:08.983Z,4.10
2018-12-17T17:03:37.905Z,4.33
2018-12-17T17:06:06.907Z,4.63
2018-12-17T17:08:35.791Z,5.07
2018-12-17T17:11:04.670Z,6.10
2018-12-17T17:13:33.569Z,4.80
2018-12-17T17:16:02.487Z,5.53
2018-12-17T17:18:31.355Z,5.40
2018-12-17T17:21:00.301Z,5.60
2018-12-17T17:23:29.179Z,6.03
2018-12-17T17:25:58.059Z,7.92
2018-12-17T17:28:26.951Z,7.37
2018-12-17T17:30:55.877Z,6.57
2018-12-17T17:33:24.834Z,6.33
2018-12-17T17:35:53.696Z,6.30
2018-12-17T17:38:22.588Z,6.43
2018-12-17T17:40:51.475Z,6.20
2018-12-17T17:43:20.392Z,6.07
2018-12-17T17:45:49.278Z,6.77
2018-12-17T17:48:18.222Z,7.50
2018-12-17T17:50:47.179Z,7.27
2018-12-17T17:53:16.019Z,8.37
2018-12-17T17:55:44.979Z,7.20
2018-12-17T17:58:13.884Z,7.60
2018-12-17T18:00:42.839Z,8.30
2018-12-17T18:03:11.744Z,8.67
2018-12-17T18:05:40.631Z,8.43
2018-12-17T18:08:09.596Z,11.10
2018-12-17T18:10:38.506Z,10.17
2018-12-17T18:13:07.455Z,9.27
2018-12-17T18:15:36.701Z,9.50
2018-12-17T18:18:05.626Z,9.70
2018-12-17T18:20:34.800Z,10.13
2018-12-17T18:23:03.718Z,10.80
2018-12-17T18:25:32.673Z,15.53
2018-12-17T18:28:01.576Z,12.43
2018-12-17T18:30:30.494Z,12.83
2018-12-17T18:32:59.368Z,12.83
2018-12-17T18:35:28.331Z,13.53
2018-12-17T18:37:57.246Z,14.60
2018-12-17T18:40:26.166Z,14.60
2018-12-17T18:42:55.072Z,15.13
2018-12-17T18:45:23.957Z,14.67
2018-12-17T18:47:52.858Z,16.57
2018-12-17T18:50:21.775Z,16.83
2018-12-17T18:52:50.662Z,17.77
2018-12-17T18:55:19.568Z,18.43
2018-12-17T18:57:48.460Z,23.35
2018-12-17T19:00:17.345Z,19.20
2018-12-17T19:02:46.258Z,19.50
2018-12-17T19:05:15.137Z,19.70
2018-12-17T19:07:44.050Z,20.23
2018-12-17T19:10:12.963Z,26.75
2018-12-17T19:12:41.872Z,21.47
2018-12-17T19:15:10.726Z,22.60
2018-12-17T19:17:39.622Z,26.48
2018-12-17T19:20:08.622Z,21.90
2018-12-17T19:22:37.618Z,20.77
2018-12-17T19:25:07.184Z,21.40
2018-12-17T19:27:36.072Z,21.50
2018-12-17T19:30:05.347Z,21.27
2018-12-17T19:32:40.106Z,22.70
2018-12-17T19:35:03.167Z,22.23
2018-12-17T19:37:32.065Z,22.87
2018-12-17T19:40:00.990Z,22.73
2018-12-17T19:42:29.881Z,22.63
2018-12-17T19:44:58.802Z,23.43
2018-12-17T19:47:27.703Z,23.37
2018-12-17T19:49:56.618Z,22.83
2018-12-17T19:52:25.557Z,23.20
2018-12-17T19:54:54.448Z,22.77
2018-12-17T19:57:23.339Z,24.20
2018-12-17T19:59:52.259Z,22.43
2018-12-17T20:02:21.184Z,22.90
2018-12-17T20:04:50.084Z,23.63
2018-12-17T20:07:18.989Z,23.17
2018-12-17T20:09:47.916Z,28.75
2018-12-17T20:12:16.847Z,24.97
2018-12-17T20:14:45.734Z,23.90
2018-12-17T20:17:14.679Z,27.75
2018-12-17T20:19:43.582Z,22.73
2018-12-17T20:22:12.510Z,23.00
2018-12-17T20:24:41.501Z,21.17
2018-12-17T20:27:10.471Z,20.93
2018-12-17T20:29:39.435Z,21.47
2018-12-17T20:32:08.390Z,22.13
2018-12-17T20:34:37.279Z,22.37
2018-12-17T20:37:06.243Z,23.47
2018-12-17T20:39:35.125Z,22.63
2018-12-17T20:42:04.050Z,22.73
2018-12-17T20:44:32.942Z,23.43
2018-12-17T20:47:01.829Z,23.10
2018-12-17T20:49:30.744Z,23.07
2018-12-17T20:51:59.602Z,31.50
2018-12-17T20:54:28.507Z,25.70
2018-12-17T20:56:57.414Z,23.63
2018-12-17T20:59:26.315Z,30.00
2018-12-17T21:01:55.194Z,25.07
2018-12-17T21:04:24.119Z,24.43
2018-12-17T21:06:53.009Z,24.17
2018-12-17T21:09:21.923Z,24.73
2018-12-17T21:11:50.815Z,24.63
2018-12-17T21:14:23.739Z,23.97
2018-12-17T21:16:48.623Z,24.80
2018-12-17T21:19:17.534Z,27.13
2018-12-17T21:21:46.542Z,26.07
2018-12-17T21:24:15.419Z,28.50
2018-12-17T21:26:44.323Z,28.47
2018-12-17T21:29:13.275Z,28.97
2018-12-17T21:31:42.335Z,32.07
2018-12-17T21:34:11.200Z,31.27
2018-12-17T21:36:40.115Z,31.20
2018-12-17T21:39:09.065Z,30.47
2018-12-17T21:41:37.976Z,32.33
2018-12-17T21:44:06.940Z,34.90
2018-12-17T21:46:35.854Z,34.00
2018-12-17T21:49:04.765Z,46.18
2018-12-17T21:51:33.694Z,36.03
2018-12-17T21:54:02.623Z,31.33
2018-12-17T21:56:31.598Z,33.87
2018-12-17T21:59:00.486Z,34.13
2018-12-17T22:01:29.379Z,32.63
2018-12-17T22:03:58.273Z,36.07
2018-12-17T22:06:27.173Z,34.37
2018-12-17T22:08:56.104Z,34.00
2018-12-17T22:11:24.998Z,35.67
2018-12-17T22:13:53.917Z,36.97
2018-12-17T22:16:22.828Z,33.63
2018-12-17T22:18:51.753Z,45.15
2018-12-17T22:21:20.638Z,36.80
2018-12-17T22:23:49.560Z,35.80
2018-12-17T22:26:18.488Z,34.53
2018-12-17T22:28:47.404Z,31.67
2018-12-17T22:31:16.274Z,45.03
2018-12-17T22:33:45.183Z,47.05
2018-12-17T22:36:14.076Z,32.57
2018-12-17T22:38:42.964Z,34.63
2018-12-17T22:41:11.866Z,32.77
2018-12-17T22:43:40.746Z,34.40
2018-12-17T22:46:09.707Z,34.13
2018-12-17T22:48:38.605Z,34.60
2018-12-17T22:51:07.568Z,35.10
2018-12-17T22:53:36.453Z,36.17
2018-12-17T22:56:05.391Z,34.60
2018-12-17T22:58:34.309Z,35.67
2018-12-17T23:01:03.235Z,35.20
2018-12-17T23:03:32.112Z,36.83
2018-12-17T23:06:01.034Z,35.03
2018-12-17T23:08:29.928Z,35.50
2018-12-17T23:11:54.703Z,37.60
2018-12-17T23:15:00.093Z,34.63
2018-12-17T23:17:42.992Z,35.07
2018-12-17T23:20:11.854Z,35.37
2018-12-17T23:22:41.218Z,35.37
2018-12-17T23:25:10.150Z,34.93
2018-12-17T23:27:39.032Z,33.50
2018-12-17T23:30:08.984Z,34.83
2018-12-17T23:32:37.869Z,34.40
2018-12-17T23:35:07.836Z,43.08
2018-12-17T23:37:36.721Z,35.63
2018-12-17T23:40:05.738Z,33.47
2018-12-17T23:42:34.635Z,32.87
2018-12-17T23:45:03.544Z,31.97
2018-12-17T23:47:32.435Z,33.03
2018-12-17T23:50:01.350Z,31.73
2018-12-17T23:52:30.420Z,32.13
2018-12-17T23:54:59.255Z,42.93
2018-12-17T23:57:28.131Z,33.60
2018-12-17T23:59:57.034Z,30.57
